Time;durP1;ratioP1;P1;durP2;ratioP2;P2;SDS_P1;SDS_P2;PMS_P1;PMS_P2;Temp;Humidity;BMP_temperature;BMP_pressure;BME280_temperature;BME280_humidity;BME280_pressure;Samples;Min_cycle;Max_cycle;Signal;HPM_P1;HPM_P2
2023/05/27 00:01:49;;;;;;;12.70;9.90;;;;;;;-140.66;100.00;55571.53;5102189;28;20500;-79
2023/05/27 00:04:34;;;;;;;11.23;10.02;;;;;;;-140.66;100.00;55571.53;5101294;28;20024;-79
2023/05/27 00:07:20;;;;;;;12.73;10.75;;;;;;;-140.66;100.00;55571.53;5101387;28;20482;-79
2023/05/27 00:10:06;;;;;;;11.43;9.98;;;;;;;-140.66;100.00;55571.53;5115621;28;20029;-79
2023/05/27 00:12:52;;;;;;;11.70;10.00;;;;;;;-140.66;100.00;55571.53;5115299;28;20451;-79
2023/05/27 00:15:40;;;;;;;12.95;9.65;;;;;;;-140.66;100.00;55571.53;5115353;28;20032;-79
2023/05/27 00:18:25;;;;;;;13.32;10.10;;;;;;;-140.66;100.00;55571.53;5115323;28;20400;-79
2023/05/27 00:21:11;;;;;;;11.32;9.65;;;;;;;-140.66;100.00;55571.53;5101416;28;20023;-79
2023/05/27 00:23:57;;;;;;;15.95;9.82;;;;;;;-140.66;100.00;55571.53;5115885;28;20031;-79
2023/05/27 00:26:43;;;;;;;11.25;8.98;;;;;;;-140.66;100.00;55571.53;5100832;28;20023;-79
2023/05/27 00:29:29;;;;;;;10.35;9.02;;;;;;;-140.66;100.00;55571.53;5100596;28;20023;-79
2023/05/27 00:32:14;;;;;;;10.27;8.75;;;;;;;-140.66;100.00;55571.53;5115604;28;20024;-79
2023/05/27 00:35:00;;;;;;;10.75;9.55;;;;;;;-140.66;100.00;55571.53;5100525;28;20368;-79
2023/05/27 00:37:46;;;;;;;10.73;9.25;;;;;;;-140.66;100.00;55571.53;5100529;28;20028;-79
2023/05/27 00:40:34;;;;;;;10.30;9.20;;;;;;;-140.66;100.00;55571.53;5114822;28;20028;-80
2023/05/27 00:43:20;;;;;;;10.82;9.63;;;;;;;-140.66;100.00;55571.53;5100345;28;20114;-81
2023/05/27 00:46:06;;;;;;;13.60;9.75;;;;;;;-140.66;100.00;55571.53;5101397;28;20106;-81
2023/05/27 00:48:52;;;;;;;11.07;9.20;;;;;;;-140.66;100.00;55571.53;5100830;28;20039;-81
2023/05/27 00:51:38;;;;;;;12.68;9.63;;;;;;;-140.66;100.00;55571.53;5100460;28;20027;-80
2023/05/27 00:54:25;;;;;;;13.13;10.43;;;;;;;-140.66;100.00;55571.53;5113927;28;20043;-80
2023/05/27 00:57:11;;;;;;;12.57;9.90;;;;;;;-140.66;100.00;55571.53;5114904;28;20114;-80
2023/05/27 00:59:57;;;;;;;10.88;9.38;;;;;;;-140.66;100.00;55571.53;5114351;28;20100;-80
2023/05/27 01:02:42;;;;;;;12.55;9.43;;;;;;;-140.66;100.00;55571.53;5116298;28;20035;-80
2023/05/27 01:05:29;;;;;;;13.82;9.70;;;;;;;-140.66;100.00;55571.53;5114588;28;20465;-80
2023/05/27 01:08:26;;;;;;;13.20;9.90;;;;;;;-140.66;100.00;55571.53;5100213;28;20039;-79
2023/05/27 01:11:15;;;;;;;12.43;10.20;;;;;;;-140.66;100.00;55571.53;5100649;28;20031;-80
2023/05/27 01:14:09;;;;;;;12.88;10.68;;;;;;;-140.66;100.00;55571.53;5100609;28;20093;-80
2023/05/27 01:16:57;;;;;;;12.15;10.85;;;;;;;-140.66;100.00;55571.53;5100933;28;20394;-80
2023/05/27 01:19:45;;;;;;;12.32;10.13;;;;;;;-140.66;100.00;55571.53;5114779;28;20058;-80
2023/05/27 01:22:31;;;;;;;11.48;10.27;;;;;;;-140.66;100.00;55571.53;5114297;28;20030;-80
2023/05/27 01:25:19;;;;;;;12.15;9.95;;;;;;;-140.66;100.00;55571.53;5115225;28;20020;-80
2023/05/27 01:28:05;;;;;;;12.98;11.25;;;;;;;-140.66;100.00;55571.53;5099497;28;20052;-80
2023/05/27 01:30:57;;;;;;;12.10;10.15;;;;;;;-140.66;100.00;55571.53;5113969;28;20031;-80
2023/05/27 01:33:49;;;;;;;11.95;10.07;;;;;;;-140.66;100.00;55571.53;5114253;28;20027;-80
2023/05/27 01:36:54;;;;;;;11.48;10.27;;;;;;;-140.66;100.00;55571.53;5100167;28;20084;-80
2023/05/27 01:39:41;;;;;;;12.27;10.98;;;;;;;-140.66;100.00;55571.53;5114031;28;20027;-80
2023/05/27 01:42:28;;;;;;;12.10;10.15;;;;;;;-140.66;100.00;55571.53;5115148;28;20035;-80
2023/05/27 01:45:14;;;;;;;14.05;10.98;;;;;;;-140.66;100.00;55571.53;5135213;28;20119;-79
2023/05/27 01:48:00;;;;;;;11.50;10.07;;;;;;;-140.66;100.00;55571.53;5117765;28;20116;-80
2023/05/27 01:50:46;;;;;;;14.60;10.20;;;;;;;-140.66;100.00;55571.53;5115082;28;20455;-80
2023/05/27 01:53:32;;;;;;;11.18;9.93;;;;;;;-140.66;100.00;55571.53;5114211;28;20028;-80
2023/05/27 01:56:17;;;;;;;12.15;9.77;;;;;;;-140.66;100.00;55571.53;5115025;28;20028;-81
2023/05/27 01:59:03;;;;;;;12.85;10.60;;;;;;;-140.66;100.00;55571.53;5113949;28;20374;-80
2023/05/27 02:01:49;;;;;;;12.75;9.32;;;;;;;-140.66;100.00;55571.53;5100067;28;20027;-80
2023/05/27 02:04:35;;;;;;;12.75;9.93;;;;;;;-140.66;100.00;55571.53;5117131;28;20039;-79
2023/05/27 02:07:21;;;;;;;12.75;10.43;;;;;;;-140.66;100.00;55571.53;5114818;28;20032;-80
2023/05/27 02:10:07;;;;;;;14.88;10.65;;;;;;;-140.66;100.00;55571.53;5102832;28;20085;-80
2023/05/27 02:12:53;;;;;;;15.10;10.55;;;;;;;-140.66;100.00;55571.53;5117811;28;20019;-80
2023/05/27 02:15:38;;;;;;;14.52;11.07;;;;;;;-140.66;100.00;55571.53;5119077;28;20023;-80
2023/05/27 02:18:25;;;;;;;14.05;10.13;;;;;;;-140.66;100.00;55571.53;5119254;28;20034;-80
2023/05/27 02:21:11;;;;;;;14.23;10.88;;;;;;;-140.66;100.00;55571.53;5102981;28;20067;-80
2023/05/27 02:23:58;;;;;;;14.88;10.25;;;;;;;-140.66;100.00;55571.53;5102794;28;20103;-80
2023/05/27 02:26:43;;;;;;;18.50;10.70;;;;;;;-140.66;100.00;55571.53;5118848;28;20389;-79
2023/05/27 02:29:29;;;;;;;16.20;11.32;;;;;;;-140.66;100.00;55571.53;5117895;28;20128;-79
2023/05/27 02:32:15;;;;;;;15.68;10.82;;;;;;;-140.66;100.00;55571.53;5102630;28;20039;-79
2023/05/27 02:35:01;;;;;;;16.23;10.63;;;;;;;-140.66;100.00;55571.53;5118706;28;20448;-79
2023/05/27 02:37:47;;;;;;;17.55;10.18;;;;;;;-140.66;100.00;55571.53;5102705;28;20028;-79
2023/05/27 02:40:32;;;;;;;17.92;11.85;;;;;;;-140.66;100.00;55571.53;5117381;28;20092;-79
2023/05/27 02:43:18;;;;;;;17.65;11.00;;;;;;;-140.66;100.00;55571.53;5103859;28;20038;-79
2023/05/27 02:46:04;;;;;;;16.38;10.30;;;;;;;-140.66;100.00;55571.53;5103802;28;20020;-80
2023/05/27 02:48:49;;;;;;;16.05;11.15;;;;;;;-140.66;100.00;55571.53;5118967;27;20360;-79
2023/05/27 02:51:35;;;;;;;15.50;10.57;;;;;;;-140.66;100.00;55571.53;5101852;28;20121;-80
2023/05/27 02:54:21;;;;;;;19.80;11.27;;;;;;;-140.66;100.00;55571.53;5117170;28;20027;-79
2023/05/27 02:57:07;;;;;;;15.48;11.57;;;;;;;-140.66;100.00;55571.53;5118448;28;20088;-80
2023/05/27 02:59:53;;;;;;;17.52;10.95;;;;;;;-140.66;100.00;55571.53;5101986;28;20038;-79
2023/05/27 03:02:38;;;;;;;15.57;10.85;;;;;;;-140.66;100.00;55571.53;5101875;28;20030;-79
2023/05/27 03:05:24;;;;;;;16.88;10.38;;;;;;;-140.66;100.00;55571.53;5117753;28;20047;-80
2023/05/27 03:08:10;;;;;;;15.40;11.25;;;;;;;-140.66;100.00;55571.53;5103394;28;20107;-79
2023/05/27 03:10:56;;;;;;;18.17;11.18;;;;;;;-140.66;100.00;55571.53;5116592;28;20126;-79
2023/05/27 03:13:41;;;;;;;18.25;11.27;;;;;;;-140.66;100.00;55571.53;5103049;28;20038;-78
2023/05/27 03:16:27;;;;;;;18.02;11.75;;;;;;;-140.66;100.00;55571.53;5101369;28;20114;-80
2023/05/27 03:19:13;;;;;;;18.38;12.10;;;;;;;-140.66;100.00;55571.53;5116360;28;20030;-80
2023/05/27 03:21:58;;;;;;;14.30;10.82;;;;;;;-140.66;100.00;55571.53;5102606;28;20028;-80
2023/05/27 03:24:44;;;;;;;18.90;11.80;;;;;;;-140.66;100.00;55571.53;5117596;28;20340;-80
2023/05/27 03:27:30;;;;;;;17.92;11.75;;;;;;;-140.66;100.00;55571.53;5116240;28;20044;-80
2023/05/27 03:30:16;;;;;;;20.45;12.27;;;;;;;-140.66;100.00;55571.53;5088574;28;20028;-79
2023/05/27 03:33:02;;;;;;;16.90;11.73;;;;;;;-140.66;100.00;55571.53;5116197;28;20059;-80
2023/05/27 03:35:49;;;;;;;17.90;11.73;;;;;;;-140.66;100.00;55571.53;5101712;28;20050;-80
2023/05/27 03:38:35;;;;;;;17.40;11.52;;;;;;;-140.66;100.00;55571.53;5102125;28;20140;-80
2023/05/27 03:41:20;;;;;;;17.33;10.90;;;;;;;-140.66;100.00;55571.53;5101024;28;20055;-80
2023/05/27 03:44:06;;;;;;;17.90;11.63;;;;;;;-140.66;100.00;55571.53;5117420;28;20028;-79
2023/05/27 03:46:52;;;;;;;18.80;11.77;;;;;;;-140.66;100.00;55571.53;5119165;28;20463;-79
2023/05/27 03:49:38;;;;;;;19.80;11.82;;;;;;;-140.66;100.00;55571.53;5121660;28;20035;-79
2023/05/27 03:52:23;;;;;;;18.88;11.10;;;;;;;-140.66;100.00;55571.53;5119544;28;20147;-79
2023/05/27 03:55:10;;;;;;;16.30;10.88;;;;;;;-140.66;100.00;55571.53;5102035;28;20345;-80
2023/05/27 03:57:56;;;;;;;14.95;10.73;;;;;;;-140.66;100.00;55571.53;5116659;28;20023;-80
2023/05/27 04:00:42;;;;;;;13.55;10.63;;;;;;;-140.66;100.00;55571.53;5115901;28;20019;-80
2023/05/27 04:03:28;;;;;;;24.77;12.20;;;;;;;-140.66;100.00;55571.53;5100856;28;20098;-79
2023/05/27 04:06:15;;;;;;;15.57;11.45;;;;;;;-140.66;100.00;55571.53;5116073;28;20020;-80
2023/05/27 04:09:01;;;;;;;18.00;11.90;;;;;;;-140.66;100.00;55571.53;5101972;28;20027;-80
2023/05/27 04:11:47;;;;;;;24.90;11.93;;;;;;;-140.66;100.00;55571.53;5115414;28;20130;-80
2023/05/27 04:14:33;;;;;;;17.17;10.77;;;;;;;-140.66;100.00;55571.53;5115232;28;20035;-80
2023/05/27 04:17:18;;;;;;;18.98;11.38;;;;;;;-140.66;100.00;55571.53;5100773;28;20024;-80
2023/05/27 04:20:13;;;;;;;15.82;10.80;;;;;;;-140.66;100.00;55571.53;5115644;28;20374;-80
2023/05/27 04:22:59;;;;;;;16.20;11.07;;;;;;;-140.66;100.00;55571.53;5134059;28;20083;-79
2023/05/27 04:25:45;;;;;;;16.83;10.45;;;;;;;-140.66;100.00;55571.53;5126454;28;20053;-81
2023/05/27 04:28:31;;;;;;;16.33;10.38;;;;;;;-140.66;100.00;55571.53;5101523;28;20097;-80
2023/05/27 04:31:17;;;;;;;15.15;9.80;;;;;;;-140.66;100.00;55571.53;5096003;28;20016;-80
2023/05/27 04:34:02;;;;;;;14.80;9.70;;;;;;;-140.66;100.00;55571.53;5094298;28;20547;-80
2023/05/27 04:36:51;;;;;;;14.88;10.02;;;;;;;-140.66;100.00;55571.53;5094863;28;20103;-80
2023/05/27 04:39:45;;;;;;;14.25;9.52;;;;;;;-140.66;100.00;55571.53;5102965;28;20081;-80
2023/05/27 04:42:32;;;;;;;14.82;10.30;;;;;;;-140.66;100.00;55571.53;5111328;28;20058;-79
2023/05/27 04:45:18;;;;;;;15.95;9.57;;;;;;;-140.66;100.00;55571.53;5098659;28;20114;-80
2023/05/27 04:48:04;;;;;;;12.10;10.18;;;;;;;-140.66;100.00;55571.53;5096059;28;20023;-81
2023/05/27 04:50:53;;;;;;;16.00;10.02;;;;;;;-140.66;100.00;55571.53;5094955;28;20048;-80
2023/05/27 04:53:38;;;;;;;16.35;9.70;;;;;;;-140.66;100.00;55571.53;5094965;28;20032;-80
2023/05/27 04:56:24;;;;;;;18.25;10.80;;;;;;;-140.66;100.00;55571.53;5095751;28;20024;-80
2023/05/27 04:59:16;;;;;;;13.55;10.02;;;;;;;-140.66;100.00;55571.53;5094246;28;20020;-80
2023/05/27 05:02:11;;;;;;;17.63;9.90;;;;;;;-140.66;100.00;55571.53;5080407;28;20078;-80
2023/05/27 05:04:56;;;;;;;15.93;10.00;;;;;;;-140.66;100.00;55571.53;5094252;28;20389;-80
2023/05/27 05:07:43;;;;;;;14.43;9.32;;;;;;;-140.66;100.00;55571.53;5093752;28;20123;-80
2023/05/27 05:10:30;;;;;;;12.38;9.20;;;;;;;-140.66;100.00;55571.53;5089386;28;20043;-79
2023/05/27 05:13:16;;;;;;;14.85;9.38;;;;;;;-140.66;100.00;55571.53;5094954;28;20038;-80
2023/05/27 05:16:01;;;;;;;14.55;9.75;;;;;;;-140.66;100.00;55571.53;5094440;28;20024;-79
2023/05/27 05:18:47;;;;;;;12.65;8.90;;;;;;;-140.66;100.00;55571.53;5080215;28;20035;-79
2023/05/27 05:21:33;;;;;;;14.38;8.88;;;;;;;-140.66;100.00;55571.53;5090520;28;20050;-78
2023/05/27 05:24:18;;;;;;;13.38;9.00;;;;;;;-140.66;100.00;55571.53;5090493;28;20020;-78
2023/05/27 05:27:06;;;;;;;13.43;9.27;;;;;;;-140.66;100.00;55571.53;5104064;28;20075;-80
2023/05/27 05:29:52;;;;;;;16.63;9.95;;;;;;;-140.66;100.00;55571.53;5081338;28;20113;-80
2023/05/27 05:32:38;;;;;;;17.08;9.73;;;;;;;-140.66;100.00;55571.53;5093905;28;20043;-80
2023/05/27 05:35:23;;;;;;;15.52;8.80;;;;;;;-140.66;100.00;55571.53;5094874;28;20031;-80
2023/05/27 05:38:09;;;;;;;17.58;8.48;;;;;;;-140.66;100.00;55571.53;5094812;28;20089;-80
2023/05/27 05:40:56;;;;;;;16.85;9.65;;;;;;;-140.66;100.00;55571.53;5083015;28;20118;-80
2023/05/27 05:43:42;;;;;;;11.40;8.32;;;;;;;-140.66;100.00;55571.53;5087378;28;20423;-81
2023/05/27 05:46:27;;;;;;;18.27;8.95;;;;;;;-140.66;100.00;55571.53;5101198;28;20035;-80
2023/05/27 05:49:13;;;;;;;12.82;8.32;;;;;;;-140.66;100.00;55571.53;5101205;28;20028;-80
2023/05/27 05:51:59;;;;;;;14.23;9.38;;;;;;;-140.66;100.00;55571.53;5102904;28;20016;-80
2023/05/27 05:54:45;;;;;;;15.10;8.07;;;;;;;-140.66;100.00;55571.53;5101941;28;20054;-81
2023/05/27 05:57:32;;;;;;;16.73;9.27;;;;;;;-140.66;100.00;55571.53;5102771;27;20059;-80
2023/05/27 06:00:18;;;;;;;19.88;10.10;;;;;;;-140.66;100.00;55571.53;5087073;28;20070;-81
2023/05/27 06:03:03;;;;;;;17.50;10.25;;;;;;;-140.66;100.00;55571.53;5100575;28;20051;-80
2023/05/27 06:05:49;;;;;;;15.65;9.93;;;;;;;-140.66;100.00;55571.53;5086647;28;20056;-80
2023/05/27 06:08:35;;;;;;;17.52;10.52;;;;;;;-140.66;100.00;55571.53;5101944;28;20024;-79
2023/05/27 06:11:21;;;;;;;19.25;9.48;;;;;;;-140.66;100.00;55571.53;5100786;28;20142;-79
2023/05/27 06:14:07;;;;;;;18.58;10.00;;;;;;;-140.66;100.00;55571.53;5099679;28;20557;-80
2023/05/27 06:16:53;;;;;;;13.80;9.95;;;;;;;-140.66;100.00;55571.53;5086914;28;20093;-79
2023/05/27 06:19:38;;;;;;;15.35;9.30;;;;;;;-140.66;100.00;55571.53;5087111;28;20024;-79
2023/05/27 06:22:24;;;;;;;16.80;9.68;;;;;;;-140.66;100.00;55571.53;5100683;28;20462;-81
2023/05/27 06:25:10;;;;;;;18.23;9.73;;;;;;;-140.66;100.00;55571.53;5100895;28;20127;-79
2023/05/27 06:27:56;;;;;;;13.88;9.00;;;;;;;-140.66;100.00;55571.53;5100265;28;20047;-80
2023/05/27 06:30:42;;;;;;;15.15;9.63;;;;;;;-140.66;100.00;55571.53;5101169;28;20024;-80
2023/05/27 06:33:28;;;;;;;11.63;8.93;;;;;;;-140.66;100.00;55571.53;5100864;28;21919;-80
2023/05/27 06:36:14;;;;;;;15.85;9.90;;;;;;;-140.66;100.00;55571.53;5100364;28;20028;-79
2023/05/27 06:39:00;;;;;;;17.23;9.73;;;;;;;-140.66;100.00;55571.53;5099722;28;20051;-80
2023/05/27 06:41:46;;;;;;;16.90;10.15;;;;;;;-140.66;100.00;55571.53;5086703;28;20333;-80
2023/05/27 06:44:31;;;;;;;15.70;10.15;;;;;;;-140.66;100.00;55571.53;5099940;28;20024;-80
2023/05/27 06:47:17;;;;;;;15.65;10.05;;;;;;;-140.66;100.00;55571.53;5111491;28;20024;-79
2023/05/27 06:50:03;;;;;;;13.02;9.40;;;;;;;-140.66;100.00;55571.53;5113095;28;20173;-80
2023/05/27 06:52:49;;;;;;;16.77;10.38;;;;;;;-140.66;100.00;55571.53;5100020;28;20020;-81
2023/05/27 06:55:34;;;;;;;13.45;9.48;;;;;;;-140.66;100.00;55571.53;5083849;28;20024;-80
2023/05/27 06:58:20;;;;;;;12.52;9.60;;;;;;;-140.66;100.00;55571.53;5097107;28;20032;-80
2023/05/27 07:01:07;;;;;;;14.45;9.32;;;;;;;-140.66;100.00;55571.53;5081664;28;20066;-80
2023/05/27 07:03:53;;;;;;;14.77;9.85;;;;;;;-140.66;100.00;55571.53;5096639;28;20080;-80
2023/05/27 07:06:38;;;;;;;12.32;9.25;;;;;;;-140.66;100.00;55571.53;5102056;28;20023;-79
2023/05/27 07:09:24;;;;;;;10.52;9.15;;;;;;;-140.66;100.00;55571.53;5095353;28;20032;-80
2023/05/27 07:12:10;;;;;;;16.83;9.90;;;;;;;-140.66;100.00;55571.53;5097885;28;20070;-79
2023/05/27 07:14:56;;;;;;;17.52;10.55;;;;;;;-140.66;100.00;55571.53;5096662;28;20434;-80
2023/05/27 07:17:41;;;;;;;15.60;10.10;;;;;;;-140.66;100.00;55571.53;5096271;28;20032;-80
2023/05/27 07:20:27;;;;;;;14.93;9.40;;;;;;;-140.66;100.00;55571.53;5082112;28;20103;-79
2023/05/27 07:23:13;;;;;;;15.35;10.27;;;;;;;-140.66;100.00;55571.53;5073357;28;20056;-80
2023/05/27 07:25:59;;;;;;;14.15;8.95;;;;;;;-140.66;100.00;55571.53;5095790;28;20363;-79
2023/05/27 07:28:46;;;;;;;13.18;9.38;;;;;;;-140.66;100.00;55571.53;5113399;28;20043;-81
2023/05/27 07:31:32;;;;;;;11.38;8.80;;;;;;;-140.66;100.00;55571.53;5116106;28;20092;-80
2023/05/27 07:34:17;;;;;;;14.32;9.15;;;;;;;-140.66;100.00;55571.53;5117222;28;20467;-79
2023/05/27 07:37:04;;;;;;;13.75;9.32;;;;;;;-140.66;100.00;55571.53;5102094;28;20027;-80
2023/05/27 07:39:51;;;;;;;12.10;9.30;;;;;;;-140.66;100.00;55571.53;5117057;28;20347;-80
2023/05/27 07:42:36;;;;;;;12.50;8.88;;;;;;;-140.66;100.00;55571.53;5101324;28;20115;-80
2023/05/27 07:45:22;;;;;;;11.30;8.38;;;;;;;-140.66;100.00;55571.53;5102869;28;20020;-80
2023/05/27 07:48:08;;;;;;;14.60;8.82;;;;;;;-140.66;100.00;55571.53;5116127;28;20028;-80
2023/05/27 07:50:54;;;;;;;12.88;9.02;;;;;;;-140.66;100.00;55571.53;5101402;28;20031;-80
2023/05/27 07:53:40;;;;;;;12.07;9.20;;;;;;;-140.66;100.00;55571.53;5101861;28;20027;-79
2023/05/27 07:56:26;;;;;;;12.50;9.43;;;;;;;-140.66;100.00;55571.53;5115653;28;20024;-80
2023/05/27 07:59:12;;;;;;;14.63;9.80;;;;;;;-140.66;100.00;55571.53;5101990;28;20367;-80
2023/05/27 08:01:57;;;;;;;13.35;9.30;;;;;;;-140.66;100.00;55571.53;5116680;28;20019;-80
2023/05/27 08:04:44;;;;;;;11.73;9.82;;;;;;;-140.66;100.00;55571.53;5116002;28;20039;-79
2023/05/27 08:07:30;;;;;;;13.98;10.48;;;;;;;-140.66;100.00;55571.53;5115863;28;20055;-80
2023/05/27 08:10:16;;;;;;;13.23;9.32;;;;;;;-140.66;100.00;55571.53;5100711;28;20043;-80
2023/05/27 08:13:02;;;;;;;17.55;10.55;;;;;;;-140.66;100.00;55571.53;5116703;28;20111;-79
2023/05/27 08:15:47;;;;;;;12.27;10.18;;;;;;;-140.66;100.00;55571.53;5101653;28;20448;-80
2023/05/27 08:18:33;;;;;;;14.27;9.85;;;;;;;-140.66;100.00;55571.53;5115956;28;20401;-79
2023/05/27 08:21:19;;;;;;;12.38;10.52;;;;;;;-140.66;100.00;55571.53;5115558;28;20027;-79
2023/05/27 08:24:05;;;;;;;15.88;10.75;;;;;;;-140.66;100.00;55571.53;5101296;28;20015;-80
2023/05/27 08:26:51;;;;;;;19.63;12.27;;;;;;;-140.66;100.00;55571.53;5099772;28;20414;-79
2023/05/27 08:29:37;;;;;;;13.75;10.75;;;;;;;-140.66;100.00;55571.53;5116300;28;20027;-80
2023/05/27 08:32:22;;;;;;;17.00;11.82;;;;;;;-140.66;100.00;55571.53;5115699;28;20023;-79
2023/05/27 08:35:10;;;;;;;15.02;11.40;;;;;;;-140.66;100.00;55571.53;5116574;28;20470;-80
2023/05/27 08:37:55;;;;;;;15.30;11.48;;;;;;;-140.66;100.00;55571.53;5101805;28;20045;-80
2023/05/27 08:40:41;;;;;;;20.13;12.70;;;;;;;-140.66;100.00;55571.53;5100018;28;20024;-80
2023/05/27 08:43:29;;;;;;;18.20;12.63;;;;;;;-140.66;100.00;55571.53;5101341;28;20027;-80
2023/05/27 08:46:15;;;;;;;17.45;11.50;;;;;;;-140.66;100.00;55571.53;5100327;28;20065;-79
2023/05/27 08:49:01;;;;;;;18.83;12.30;;;;;;;-140.66;100.00;55571.53;5101655;28;20042;-79
2023/05/27 08:51:48;;;;;;;17.13;11.00;;;;;;;-140.66;100.00;55571.53;5114480;28;20023;-79
2023/05/27 08:54:35;;;;;;;17.27;13.93;;;;;;;-140.66;100.00;55571.53;5115121;28;20046;-79
2023/05/27 08:57:23;;;;;;;15.38;12.55;;;;;;;-140.66;100.00;55571.53;5101062;28;20147;-80
2023/05/27 09:00:13;;;;;;;17.08;12.00;;;;;;;-140.66;100.00;55571.53;5115483;28;20040;-80
2023/05/27 09:02:59;;;;;;;16.98;11.82;;;;;;;-140.66;100.00;55571.53;5114718;28;20032;-80
2023/05/27 09:05:45;;;;;;;15.73;11.73;;;;;;;-140.66;100.00;55571.53;5100015;28;20053;-79
2023/05/27 09:08:31;;;;;;;18.17;12.18;;;;;;;-140.66;100.00;55571.53;5099999;28;20027;-80
2023/05/27 09:11:25;;;;;;;15.82;11.20;;;;;;;-140.66;100.00;55571.53;5114293;28;20552;-81
2023/05/27 09:14:23;;;;;;;17.90;12.35;;;;;;;-140.66;100.00;55571.53;5115796;28;20101;-80
2023/05/27 09:17:09;;;;;;;12.50;10.32;;;;;;;-140.66;100.00;55571.53;5100605;28;20027;-80
2023/05/27 09:19:55;;;;;;;14.07;10.23;;;;;;;-140.66;100.00;55571.53;5115526;28;20069;-80
2023/05/27 09:22:41;;;;;;;13.18;10.98;;;;;;;-140.66;100.00;55571.53;5114751;28;20024;-80
2023/05/27 09:25:27;;;;;;;17.30;11.10;;;;;;;-140.66;100.00;55571.53;5114934;28;20085;-80
2023/05/27 09:28:23;;;;;;;15.80;10.57;;;;;;;-140.66;100.00;55571.53;5100880;28;20044;-80
2023/05/27 09:31:09;;;;;;;16.05;11.10;;;;;;;-140.66;100.00;55571.53;5115570;28;20447;-80
2023/05/27 09:33:55;;;;;;;22.10;14.63;;;;;;;-140.66;100.00;55571.53;5115441;28;20023;-81
2023/05/27 09:36:49;;;;;;;19.45;11.85;;;;;;;-140.66;100.00;55571.53;5115507;28;20030;-80
2023/05/27 09:39:35;;;;;;;16.27;9.80;;;;;;;-140.66;100.00;55571.53;5123123;28;20360;-81
2023/05/27 09:42:21;;;;;;;18.13;11.95;;;;;;;-140.66;100.00;55571.53;5114357;28;20422;-79
2023/05/27 09:45:11;;;;;;;15.50;11.10;;;;;;;-140.66;100.00;55571.53;5100048;28;20038;-80
2023/05/27 09:47:59;;;;;;;13.13;10.25;;;;;;;-140.66;100.00;55571.53;5113915;28;20027;-80
2023/05/27 09:50:46;;;;;;;15.05;9.50;;;;;;;-140.66;100.00;55571.53;5100532;28;20107;-81
2023/05/27 09:53:35;;;;;;;15.45;10.25;;;;;;;-140.66;100.00;55571.53;5101275;28;20110;-80
2023/05/27 09:56:23;;;;;;;12.30;9.30;;;;;;;-140.66;100.00;55571.53;5100343;28;20028;-80
2023/05/27 09:59:09;;;;;;;14.80;9.38;;;;;;;-140.66;100.00;55571.53;5113726;28;20031;-79
2023/05/27 10:01:57;;;;;;;13.23;10.00;;;;;;;-140.66;100.00;55571.53;5118182;28;20066;-80
2023/05/27 10:04:43;;;;;;;12.80;9.93;;;;;;;-140.66;100.00;55571.53;5099760;28;20031;-80
2023/05/27 10:07:30;;;;;;;13.52;9.73;;;;;;;-140.66;100.00;55571.53;5114224;28;20027;-79
2023/05/27 10:10:18;;;;;;;11.75;8.98;;;;;;;-140.66;100.00;55571.53;5099580;28;20432;-79
2023/05/27 10:13:04;;;;;;;10.73;8.40;;;;;;;-140.66;100.00;55571.53;5100088;28;20038;-80
2023/05/27 10:15:52;;;;;;;14.00;9.25;;;;;;;-140.66;100.00;55571.53;5099420;28;20031;-79
2023/05/27 10:18:42;;;;;;;11.75;9.18;;;;;;;-140.66;100.00;55571.53;5100017;28;20513;-79
2023/05/27 10:21:31;;;;;;;17.42;9.73;;;;;;;-140.66;100.00;55571.53;5114776;28;20037;-80
2023/05/27 10:24:17;;;;;;;14.25;9.15;;;;;;;-140.66;100.00;55571.53;5114158;28;20089;-80
2023/05/27 10:27:03;;;;;;;11.23;8.57;;;;;;;-140.66;100.00;55571.53;5115489;28;20171;-80
2023/05/27 10:29:58;;;;;;;12.25;9.07;;;;;;;-140.66;100.00;55571.53;5102643;28;20027;-79
2023/05/27 10:32:50;;;;;;;12.13;9.40;;;;;;;-140.66;100.00;55571.53;5118653;28;20042;-80
2023/05/27 10:35:43;;;;;;;10.25;8.50;;;;;;;-140.66;100.00;55571.53;5117490;28;20062;-79
2023/05/27 10:38:28;;;;;;;10.95;8.80;;;;;;;-140.66;100.00;55571.53;5103125;28;20035;-80
2023/05/27 10:41:15;;;;;;;13.32;8.70;;;;;;;-140.66;100.00;55571.53;5117204;28;20038;-79
2023/05/27 10:44:01;;;;;;;12.00;7.95;;;;;;;-140.66;100.00;55571.53;5117580;28;20080;-80
2023/05/27 10:46:47;;;;;;;14.35;8.50;;;;;;;-140.66;100.00;55571.53;5103340;28;20031;-80
2023/05/27 10:49:38;;;;;;;12.52;8.20;;;;;;;-140.66;100.00;55571.53;5125152;28;20050;-78
2023/05/27 10:52:26;;;;;;;10.65;8.60;;;;;;;-140.66;100.00;55571.53;5109956;28;20027;-78
2023/05/27 10:55:13;;;;;;;10.00;8.75;;;;;;;-140.66;100.00;55571.53;5109260;28;20047;-80
2023/05/27 10:57:59;;;;;;;12.10;8.82;;;;;;;-140.66;100.00;55571.53;5105972;28;20164;-78
2023/05/27 11:00:49;;;;;;;14.40;8.85;;;;;;;-140.66;100.00;55571.53;5105371;28;20024;-79
2023/05/27 11:03:34;;;;;;;11.35;8.90;;;;;;;-140.66;100.00;55571.53;5118577;28;20030;-78
2023/05/27 11:06:20;;;;;;;13.07;8.63;;;;;;;-140.66;100.00;55571.53;5114184;28;20024;-79
2023/05/27 11:09:07;;;;;;;12.75;8.20;;;;;;;-140.66;100.00;55571.53;5122441;28;20024;-79
2023/05/27 11:11:55;;;;;;;13.38;9.52;;;;;;;-140.66;100.00;55571.53;5133223;28;20034;-80
2023/05/27 11:14:41;;;;;;;11.35;8.45;;;;;;;-140.66;100.00;55571.53;5129614;28;20031;-80
2023/05/27 11:17:27;;;;;;;13.10;9.05;;;;;;;-140.66;100.00;55571.53;5118756;28;20092;-80
2023/05/27 11:20:13;;;;;;;16.77;8.73;;;;;;;-140.66;100.00;55571.53;5121471;28;20035;-79
2023/05/27 11:22:58;;;;;;;13.05;8.98;;;;;;;-140.66;100.00;55571.53;5119333;28;20411;-79
2023/05/27 11:25:45;;;;;;;10.45;8.50;;;;;;;-140.66;100.00;55571.53;5116770;28;20023;-78
2023/05/27 11:28:31;;;;;;;13.70;9.20;;;;;;;-140.66;100.00;55571.53;5102393;28;20047;-79
2023/05/27 11:31:19;;;;;;;17.42;9.70;;;;;;;-140.66;100.00;55571.53;5116609;28;20031;-80
2023/05/27 11:34:11;;;;;;;12.15;9.43;;;;;;;-140.66;100.00;55571.53;5116498;28;20066;-79
2023/05/27 11:37:04;;;;;;;10.45;8.77;;;;;;;-140.66;100.00;55571.53;5116795;28;20459;-79
2023/05/27 11:39:51;;;;;;;15.88;8.23;;;;;;;-140.66;100.00;55571.53;5102089;28;20073;-79
2023/05/27 11:42:37;;;;;;;11.15;7.88;;;;;;;-140.66;100.00;55571.53;5116723;28;20043;-79
2023/05/27 11:45:23;;;;;;;11.30;9.57;;;;;;;-140.66;100.00;55571.53;5116966;28;20020;-80
2023/05/27 11:48:10;;;;;;;11.18;8.95;;;;;;;-140.66;100.00;55571.53;5102058;28;20054;-79
2023/05/27 11:50:57;;;;;;;11.15;9.68;;;;;;;-140.66;100.00;55571.53;5116809;28;20031;-80
2023/05/27 11:53:46;;;;;;;13.70;9.80;;;;;;;-140.66;100.00;55571.53;5101655;28;20063;-80
2023/05/27 11:56:33;;;;;;;13.07;8.52;;;;;;;-140.66;100.00;55571.53;5102525;28;20023;-78
2023/05/27 11:59:20;;;;;;;17.63;8.57;;;;;;;-140.66;100.00;55571.53;5116381;28;20023;-80
2023/05/27 12:02:06;;;;;;;12.95;9.25;;;;;;;-140.66;100.00;55571.53;5116584;28;20046;-79
2023/05/27 12:04:52;;;;;;;11.88;9.27;;;;;;;-140.66;100.00;55571.53;5101565;28;20104;-79
2023/05/27 12:07:40;;;;;;;13.98;9.77;;;;;;;-140.66;100.00;55571.53;5115913;28;20028;-80
2023/05/27 12:10:25;;;;;;;10.05;8.13;;;;;;;-140.66;100.00;55571.53;5115589;28;20020;-79
2023/05/27 12:13:11;;;;;;;9.88;7.78;;;;;;;-140.66;100.00;55571.53;5116164;28;20359;-79
2023/05/27 12:15:57;;;;;;;16.35;8.43;;;;;;;-140.66;100.00;55571.53;5117094;28;20508;-80
2023/05/27 12:18:45;;;;;;;11.25;8.48;;;;;;;-140.66;100.00;55571.53;5115667;28;20332;-78
2023/05/27 12:21:30;;;;;;;11.63;8.73;;;;;;;-140.66;100.00;55571.53;5100980;28;20128;-79
2023/05/27 12:24:16;;;;;;;15.90;8.85;;;;;;;-140.66;100.00;55571.53;5124818;28;20118;-78